createdAt,value
2017-11-18T00:01:30.637Z,5.47
2017-11-18T00:03:58.120Z,5.80
2017-11-18T00:06:26.379Z,4.93
2017-11-18T00:08:53.828Z,5.30
2017-11-18T00:11:21.313Z,4.90
2017-11-18T00:13:48.890Z,4.20
2017-11-18T00:16:16.355Z,5.00
2017-11-18T00:18:43.813Z,3.47
2017-11-18T00:21:11.269Z,4.17
2017-11-18T00:23:38.785Z,4.80
2017-11-18T00:26:06.227Z,5.23
2017-11-18T00:28:35.417Z,6.50
2017-11-18T00:31:02.878Z,6.30
2017-11-18T00:33:30.328Z,4.63
2017-11-18T00:35:57.804Z,4.20
2017-11-18T00:38:26.067Z,4.90
2017-11-18T00:40:53.514Z,5.40
2017-11-18T00:43:21.045Z,4.60
2017-11-18T00:45:48.543Z,4.20
2017-11-18T00:48:16.026Z,5.00
2017-11-18T00:50:43.519Z,4.47
2017-11-18T00:53:11.810Z,4.43
2017-11-18T00:55:39.209Z,5.30
2017-11-18T00:58:06.735Z,4.97
2017-11-18T01:00:34.206Z,5.10
2017-11-18T01:03:01.671Z,3.90
2017-11-18T01:05:29.156Z,4.37
2017-11-18T01:07:56.641Z,4.40
2017-11-18T01:10:24.085Z,3.63
2017-11-18T01:12:51.560Z,5.97
2017-11-18T01:15:19.225Z,6.43
2017-11-18T01:17:47.388Z,4.30
2017-11-18T01:20:14.859Z,4.00
2017-11-18T01:22:42.338Z,4.00
2017-11-18T01:25:09.842Z,4.57
2017-11-18T01:27:37.332Z,4.50
2017-11-18T01:30:04.834Z,4.67
2017-11-18T01:32:33.048Z,4.70
2017-11-18T01:35:00.529Z,4.37
2017-11-18T01:37:28.027Z,4.50
2017-11-18T01:39:55.499Z,4.20
2017-11-18T01:42:22.985Z,4.00
2017-11-18T01:44:51.220Z,4.97
2017-11-18T01:47:18.917Z,4.43
2017-11-18T01:49:47.139Z,4.30
2017-11-18T01:52:14.621Z,5.40
2017-11-18T01:54:42.075Z,3.87
2017-11-18T01:57:09.555Z,4.50
2017-11-18T01:59:37.030Z,4.50
2017-11-18T02:02:04.828Z,4.60
2017-11-18T02:04:33.077Z,4.20
2017-11-18T02:07:00.529Z,4.60
2017-11-18T02:09:28.024Z,4.20
2017-11-18T02:11:56.267Z,4.33
2017-11-18T02:14:23.728Z,4.80
2017-11-18T02:16:51.200Z,4.33
2017-11-18T02:19:18.684Z,4.80
2017-11-18T02:21:46.141Z,5.67
2017-11-18T02:24:13.589Z,4.73
2017-11-18T02:26:41.065Z,4.80
2017-11-18T02:29:08.550Z,4.67
2017-11-18T02:31:36.749Z,4.63
2017-11-18T02:34:04.244Z,4.70
2017-11-18T02:36:31.699Z,4.73
2017-11-18T02:38:59.185Z,4.00
2017-11-18T02:41:26.673Z,4.30
2017-11-18T02:43:54.911Z,4.93
2017-11-18T02:46:22.351Z,4.33
2017-11-18T02:48:49.868Z,4.90
2017-11-18T02:51:18.118Z,4.00
2017-11-18T02:53:45.615Z,4.43
2017-11-18T02:56:13.863Z,5.33
2017-11-18T02:58:41.339Z,4.40
2017-11-18T03:01:08.844Z,5.00
2017-11-18T03:03:36.294Z,5.87
2017-11-18T03:06:04.572Z,4.70
2017-11-18T03:08:32.797Z,4.70
2017-11-18T03:11:00.265Z,6.70
2017-11-18T03:13:27.698Z,4.67
2017-11-18T03:15:55.135Z,4.80
2017-11-18T03:18:23.346Z,4.60
2017-11-18T03:20:50.830Z,5.10
2017-11-18T03:23:18.268Z,4.30
2017-11-18T03:25:45.790Z,5.00
2017-11-18T03:28:13.240Z,5.50
2017-11-18T03:30:40.741Z,4.40
2017-11-18T03:33:09.096Z,4.53
2017-11-18T03:35:36.577Z,4.00
2017-11-18T03:38:04.015Z,5.17
2017-11-18T03:40:31.473Z,4.90
2017-11-18T03:42:58.927Z,5.10
2017-11-18T03:45:26.405Z,4.20
2017-11-18T03:47:53.842Z,4.67
2017-11-18T03:50:21.330Z,4.90
2017-11-18T03:52:48.788Z,4.40
2017-11-18T03:55:16.396Z,4.70
2017-11-18T03:57:43.831Z,4.77
2017-11-18T04:00:12.038Z,3.40
2017-11-18T04:02:39.543Z,4.17
2017-11-18T04:05:07.011Z,3.70
2017-11-18T04:07:35.271Z,3.63
2017-11-18T04:10:02.762Z,3.80
2017-11-18T04:12:30.220Z,5.20
2017-11-18T04:14:57.671Z,4.30
2017-11-18T04:17:25.145Z,4.10
2017-11-18T04:19:52.613Z,3.80
2017-11-18T04:22:20.203Z,3.67
2017-11-18T04:24:48.585Z,4.10
2017-11-18T04:27:16.826Z,4.40
2017-11-18T04:29:44.269Z,3.50
2017-11-18T04:32:12.430Z,3.87
2017-11-18T04:34:39.943Z,3.70
2017-11-18T04:37:07.369Z,4.00
2017-11-18T04:39:34.844Z,3.60
2017-11-18T04:42:02.418Z,4.43
2017-11-18T04:44:30.091Z,3.67
2017-11-18T04:46:57.579Z,4.00
2017-11-18T04:49:25.806Z,3.63
2017-11-18T04:51:53.272Z,3.63
2017-11-18T04:54:20.759Z,3.50
2017-11-18T04:56:48.241Z,3.57
2017-11-18T04:59:15.685Z,3.77
2017-11-18T05:01:43.149Z,4.00
2017-11-18T05:04:10.706Z,4.10
2017-11-18T05:06:38.138Z,3.50
2017-11-18T05:09:05.649Z,4.20
2017-11-18T05:11:33.610Z,4.23
2017-11-18T05:14:01.054Z,3.97
2017-11-18T05:16:28.498Z,5.13
2017-11-18T05:18:55.941Z,4.17
2017-11-18T05:21:23.413Z,4.07
2017-11-18T05:23:50.897Z,3.77
2017-11-18T05:26:18.369Z,4.57
2017-11-18T05:28:45.836Z,4.43
2017-11-18T05:31:13.314Z,3.60
2017-11-18T05:33:40.901Z,3.73
2017-11-18T05:36:09.196Z,3.40
2017-11-18T05:38:36.663Z,3.83
2017-11-18T05:41:04.121Z,4.10
2017-11-18T05:43:31.601Z,4.10
2017-11-18T05:45:59.050Z,3.23
2017-11-18T05:48:26.522Z,4.73
2017-11-18T05:50:53.989Z,4.37
2017-11-18T05:53:21.495Z,4.77
2017-11-18T05:55:48.947Z,4.23
2017-11-18T05:58:16.608Z,4.30
2017-11-18T06:00:44.127Z,4.67
2017-11-18T06:03:11.684Z,4.23
2017-11-18T06:05:39.205Z,4.07
2017-11-18T06:08:06.660Z,4.10
2017-11-18T06:10:34.116Z,4.30
2017-11-18T06:13:01.591Z,4.13
2017-11-18T06:15:29.053Z,4.73
2017-11-18T06:17:56.562Z,3.90
2017-11-18T06:20:24.048Z,4.00
2017-11-18T06:22:51.498Z,3.63
2017-11-18T06:25:18.975Z,3.57
2017-11-18T06:27:46.477Z,4.00
2017-11-18T06:30:13.948Z,4.67
2017-11-18T06:32:41.431Z,3.10
2017-11-18T06:35:09.648Z,3.97
2017-11-18T06:37:37.139Z,4.50
2017-11-18T06:40:04.634Z,3.97
2017-11-18T06:42:32.866Z,3.90
2017-11-18T06:45:00.375Z,3.60
2017-11-18T06:47:28.606Z,3.53
2017-11-18T06:49:56.174Z,3.73
2017-11-18T06:52:23.576Z,4.00
2017-11-18T06:54:51.815Z,3.87
2017-11-18T06:57:19.344Z,3.83
2017-11-18T06:59:46.795Z,3.90
2017-11-18T07:02:14.344Z,3.80
2017-11-18T07:04:42.653Z,4.37
2017-11-18T07:07:10.146Z,4.40
2017-11-18T07:09:37.599Z,3.90
2017-11-18T07:12:05.111Z,4.43
2017-11-18T07:14:32.748Z,4.23
2017-11-18T07:17:00.217Z,4.10
2017-11-18T07:19:27.695Z,4.40
2017-11-18T07:21:55.137Z,4.40
2017-11-18T07:24:22.748Z,4.87
2017-11-18T07:26:50.261Z,3.90
2017-11-18T07:29:17.696Z,3.67
2017-11-18T07:31:45.211Z,4.97
2017-11-18T07:34:12.794Z,4.30
2017-11-18T07:36:40.264Z,4.27
2017-11-18T07:39:08.512Z,4.50
2017-11-18T07:41:35.970Z,5.60
2017-11-18T07:44:03.532Z,5.00
2017-11-18T07:46:31.128Z,4.53
2017-11-18T07:48:59.596Z,4.97
2017-11-18T07:51:27.086Z,4.53
2017-11-18T07:53:54.525Z,4.87
2017-11-18T07:56:22.757Z,4.17
2017-11-18T07:58:50.963Z,5.57
2017-11-18T08:01:18.567Z,4.50
2017-11-18T08:03:46.953Z,3.87
2017-11-18T08:06:15.218Z,5.20
2017-11-18T08:08:42.662Z,4.53
2017-11-18T08:11:10.120Z,5.40
2017-11-18T08:13:37.616Z,5.07
2017-11-18T08:16:05.839Z,4.37
2017-11-18T08:18:33.285Z,5.03
2017-11-18T08:21:00.750Z,5.17
2017-11-18T08:23:28.241Z,4.97
2017-11-18T08:25:55.725Z,4.07
2017-11-18T08:28:23.234Z,4.73
2017-11-18T08:30:50.715Z,4.87
2017-11-18T08:33:18.214Z,4.27
2017-11-18T08:35:46.501Z,4.13
2017-11-18T08:38:13.935Z,6.27
2017-11-18T08:40:41.413Z,4.70
2017-11-18T08:43:08.872Z,4.37
2017-11-18T08:45:37.832Z,5.00
2017-11-18T08:48:05.357Z,4.50
2017-11-18T08:50:32.942Z,4.53
2017-11-18T08:53:00.348Z,4.67
2017-11-18T08:55:27.842Z,4.30
2017-11-18T08:57:56.111Z,5.10
2017-11-18T09:00:23.570Z,4.60
2017-11-18T09:02:51.161Z,4.93
2017-11-18T09:05:19.444Z,4.57
2017-11-18T09:07:47.642Z,4.53
2017-11-18T09:10:15.133Z,4.13
2017-11-18T09:12:42.634Z,4.70
2017-11-18T09:15:10.866Z,6.07
2017-11-18T09:17:38.361Z,4.70
2017-11-18T09:20:05.840Z,5.43
2017-11-18T09:22:34.135Z,4.30
2017-11-18T09:25:01.617Z,5.03
2017-11-18T09:27:29.209Z,5.20
2017-11-18T09:29:56.737Z,5.80
2017-11-18T09:32:24.260Z,5.27
2017-11-18T09:34:51.744Z,4.70
2017-11-18T09:37:20.039Z,4.93
2017-11-18T09:39:47.530Z,4.10
2017-11-18T09:42:14.982Z,4.20
2017-11-18T09:44:42.558Z,4.37
2017-11-18T09:47:10.061Z,4.87
2017-11-18T09:49:37.539Z,5.30
2017-11-18T09:52:05.852Z,4.37
2017-11-18T09:54:33.304Z,5.10
2017-11-18T09:57:01.531Z,5.10
2017-11-18T09:59:29.096Z,4.93
2017-11-18T10:01:56.502Z,4.93
2017-11-18T10:04:24.398Z,5.37
2017-11-18T10:06:51.868Z,5.77
2017-11-18T10:09:19.338Z,5.23
2017-11-18T10:11:46.793Z,5.30
2017-11-18T10:14:14.336Z,4.63
2017-11-18T10:16:42.521Z,5.13
2017-11-18T10:19:10.027Z,5.90
2017-11-18T10:21:37.459Z,5.80
2017-11-18T10:24:04.950Z,5.87
2017-11-18T10:26:32.441Z,5.07
2017-11-18T10:29:00.708Z,5.20
2017-11-18T10:31:28.199Z,5.53
2017-11-18T10:33:55.675Z,5.87
2017-11-18T10:36:23.139Z,6.73
2017-11-18T10:38:50.704Z,5.67
2017-11-18T10:41:18.157Z,5.20
2017-11-18T10:43:45.656Z,6.23
2017-11-18T10:46:13.146Z,6.00
2017-11-18T10:48:40.708Z,5.47
2017-11-18T10:51:08.146Z,6.10
2017-11-18T10:53:35.621Z,5.53
2017-11-18T10:56:03.321Z,5.40
2017-11-18T10:58:30.729Z,6.10
2017-11-18T11:00:58.246Z,6.03
2017-11-18T11:03:26.455Z,6.53
2017-11-18T11:05:53.943Z,5.43
2017-11-18T11:08:21.468Z,7.13
2017-11-18T11:10:48.981Z,6.30
2017-11-18T11:13:16.570Z,6.27
2017-11-18T11:15:44.002Z,5.47
2017-11-18T11:18:11.439Z,6.13
2017-11-18T11:20:38.956Z,5.20
2017-11-18T11:23:07.189Z,6.63
2017-11-18T11:25:34.687Z,7.17
2017-11-18T11:28:02.177Z,5.83
2017-11-18T11:30:30.380Z,6.50
2017-11-18T11:32:57.960Z,6.03
2017-11-18T11:35:25.455Z,5.67
2017-11-18T11:37:52.959Z,6.57
2017-11-18T11:40:21.206Z,5.70
2017-11-18T11:42:48.635Z,7.30
2017-11-18T11:45:16.148Z,5.73
2017-11-18T11:47:43.634Z,6.17
2017-11-18T11:50:11.874Z,6.83
2017-11-18T11:52:40.155Z,5.87
2017-11-18T11:55:07.649Z,6.40
2017-11-18T11:57:35.136Z,6.97
2017-11-18T12:00:02.627Z,6.80
2017-11-18T12:02:30.095Z,6.00
2017-11-18T12:04:57.545Z,5.77
2017-11-18T12:07:25.078Z,5.17
2017-11-18T12:09:53.255Z,6.90
2017-11-18T12:12:20.764Z,5.70
2017-11-18T12:14:48.256Z,6.10
2017-11-18T12:17:15.710Z,5.97
2017-11-18T12:19:43.925Z,5.90
2017-11-18T12:22:11.428Z,7.03
2017-11-18T12:24:38.914Z,6.27
2017-11-18T12:27:07.187Z,5.70
2017-11-18T12:29:34.675Z,5.93
2017-11-18T12:32:02.141Z,4.93
2017-11-18T12:34:29.565Z,6.13
2017-11-18T12:36:57.079Z,6.47
2017-11-18T12:39:24.517Z,5.30
2017-11-18T12:41:52.893Z,5.40
2017-11-18T12:44:21.143Z,5.07
2017-11-18T12:46:48.555Z,5.70
2017-11-18T12:49:16.051Z,5.13
2017-11-18T12:51:43.536Z,6.17
2017-11-18T12:54:11.061Z,5.70
2017-11-18T12:56:39.258Z,5.53
2017-11-18T12:59:06.753Z,5.87
2017-11-18T13:01:35.020Z,5.30
2017-11-18T13:04:03.180Z,5.00
2017-11-18T13:06:30.541Z,5.53
2017-11-18T13:08:58.001Z,5.73
2017-11-18T13:11:25.492Z,5.20
2017-11-18T13:13:52.942Z,4.90
2017-11-18T13:16:20.541Z,4.70
2017-11-18T13:18:47.988Z,5.97
2017-11-18T13:21:15.423Z,4.80
2017-11-18T13:23:42.943Z,5.03
2017-11-18T13:26:11.150Z,5.00
2017-11-18T13:28:38.661Z,4.80
2017-11-18T13:31:06.126Z,4.57
2017-11-18T13:33:33.646Z,5.80
2017-11-18T13:36:01.142Z,4.90
2017-11-18T13:38:29.368Z,4.87
2017-11-18T13:40:56.927Z,4.97
2017-11-18T13:43:24.361Z,5.57
2017-11-18T13:45:52.624Z,4.60
2017-11-18T13:48:20.928Z,4.63
2017-11-18T13:50:48.356Z,5.87
2017-11-18T13:53:15.824Z,4.80
2017-11-18T13:55:43.540Z,5.70
2017-11-18T13:58:11.034Z,6.50
2017-11-18T14:00:38.529Z,5.70
2017-11-18T14:03:06.752Z,6.43
2017-11-18T14:05:34.461Z,6.27
2017-11-18T14:08:01.972Z,6.30
2017-11-18T14:10:29.433Z,5.47
2017-11-18T14:12:57.664Z,4.30
2017-11-18T14:15:25.269Z,5.77
2017-11-18T14:17:53.561Z,5.30
2017-11-18T14:20:21.002Z,5.90
2017-11-18T14:22:48.475Z,5.37
2017-11-18T14:25:15.920Z,5.40
2017-11-18T14:27:44.138Z,5.07
2017-11-18T14:30:11.653Z,5.80
2017-11-18T14:32:39.126Z,4.37
2017-11-18T14:35:07.417Z,5.00
2017-11-18T14:37:34.868Z,5.47
2017-11-18T14:40:02.333Z,5.40
2017-11-18T14:42:30.614Z,4.60
2017-11-18T14:44:58.838Z,5.20
2017-11-18T14:47:26.332Z,5.43
2017-11-18T14:49:53.788Z,5.80
2017-11-18T14:52:21.257Z,6.50
2017-11-18T14:54:48.746Z,6.07
2017-11-18T14:57:16.940Z,5.43
2017-11-18T14:59:44.466Z,5.60
2017-11-18T15:02:11.925Z,5.70
2017-11-18T15:04:39.429Z,4.63
2017-11-18T15:07:06.937Z,5.50
2017-11-18T15:09:34.465Z,4.97
2017-11-18T15:12:01.952Z,5.07
2017-11-18T15:14:29.480Z,5.60
2017-11-18T15:16:56.958Z,5.37
2017-11-18T15:19:24.464Z,5.97
2017-11-18T15:21:51.917Z,5.40
2017-11-18T15:24:19.540Z,5.83
2017-11-18T15:26:46.962Z,3.13
2017-11-18T15:29:14.496Z,1.90
2017-11-18T15:31:42.014Z,1.07
2017-11-18T15:34:10.254Z,1.10
2017-11-18T15:36:37.701Z,0.73
2017-11-18T15:39:05.200Z,1.00
2017-11-18T15:41:32.678Z,1.00
2017-11-18T15:44:00.112Z,0.80
2017-11-18T15:46:27.594Z,0.67
2017-11-18T15:48:55.181Z,1.03
2017-11-18T15:51:22.663Z,0.83
2017-11-18T15:53:50.235Z,0.90
2017-11-18T15:56:17.718Z,0.80
2017-11-18T15:58:45.171Z,1.27
2017-11-18T16:01:12.719Z,1.07
2017-11-18T16:03:40.140Z,1.00
2017-11-18T16:06:07.587Z,1.23
2017-11-18T16:08:35.853Z,1.27
2017-11-18T16:11:03.287Z,1.10
2017-11-18T16:13:30.982Z,2.10
2017-11-18T16:15:58.481Z,1.40
2017-11-18T16:18:26.746Z,1.03
2017-11-18T16:20:54.262Z,1.47
2017-11-18T16:23:22.482Z,1.40
2017-11-18T16:25:50.020Z,1.37
2017-11-18T16:28:17.530Z,1.20
2017-11-18T16:30:45.022Z,1.33
2017-11-18T16:33:12.488Z,1.40
2017-11-18T16:35:39.936Z,1.47
2017-11-18T16:38:07.514Z,0.70
2017-11-18T16:40:35.190Z,1.30
2017-11-18T16:43:02.619Z,1.43
2017-11-18T16:45:30.090Z,0.93
2017-11-18T16:47:58.335Z,1.20
2017-11-18T16:50:25.854Z,1.77
2017-11-18T16:52:53.304Z,1.57
2017-11-18T16:55:20.788Z,1.47
2017-11-18T16:57:48.231Z,1.20
2017-11-18T17:00:15.703Z,1.50
2017-11-18T17:02:43.225Z,1.93
2017-11-18T17:05:10.723Z,1.90
2017-11-18T17:07:38.130Z,1.37
2017-11-18T17:10:06.379Z,1.37
2017-11-18T17:12:33.822Z,1.33
2017-11-18T17:15:02.253Z,1.30
2017-11-18T17:17:29.853Z,1.00
2017-11-18T17:19:57.300Z,1.00
2017-11-18T17:22:24.738Z,1.60
2017-11-18T17:24:52.176Z,1.10
2017-11-18T17:27:19.846Z,1.13
2017-11-18T17:29:48.022Z,1.70
2017-11-18T17:32:15.502Z,1.40
2017-11-18T17:34:42.972Z,1.53
2017-11-18T17:37:10.492Z,1.40
2017-11-18T17:39:37.946Z,1.67
2017-11-18T17:42:05.415Z,1.63
2017-11-18T17:44:32.888Z,1.83
2017-11-18T17:47:00.364Z,2.10
2017-11-18T17:49:27.848Z,1.77
2017-11-18T17:51:55.304Z,2.30
2017-11-18T17:54:22.797Z,1.90
2017-11-18T17:56:51.063Z,1.53
2017-11-18T17:59:19.820Z,2.70
2017-11-18T18:01:47.380Z,2.60
2017-11-18T18:04:14.861Z,3.33
2017-11-18T18:06:42.490Z,2.50
2017-11-18T18:09:09.980Z,2.30
2017-11-18T18:11:37.452Z,3.23
2017-11-18T18:14:04.924Z,2.60
2017-11-18T18:16:32.453Z,2.43
2017-11-18T18:18:59.956Z,2.60
2017-11-18T18:21:27.480Z,2.57
2017-11-18T18:23:55.007Z,2.90
2017-11-18T18:26:23.271Z,2.90
2017-11-18T18:28:50.751Z,2.73
2017-11-18T18:31:19.055Z,2.67
2017-11-18T18:33:46.583Z,2.93
2017-11-18T18:36:14.061Z,2.20
2017-11-18T18:38:41.574Z,2.37
2017-11-18T18:41:09.074Z,3.17
2017-11-18T18:43:36.493Z,2.73
2017-11-18T18:46:04.009Z,3.23
2017-11-18T18:48:31.517Z,3.30
2017-11-18T18:50:59.030Z,3.27
2017-11-18T18:53:26.555Z,3.63
2017-11-18T18:55:54.039Z,2.97
2017-11-18T18:58:21.488Z,3.50
2017-11-18T19:00:48.993Z,2.57
2017-11-18T19:03:17.235Z,3.50
2017-11-18T19:05:44.741Z,3.07
2017-11-18T19:08:12.200Z,6.10
2017-11-18T19:10:39.682Z,4.10
2017-11-18T19:13:07.991Z,4.30
2017-11-18T19:15:35.468Z,3.40
2017-11-18T19:18:02.959Z,4.13
2017-11-18T19:20:30.489Z,4.70
2017-11-18T19:22:58.014Z,5.50
2017-11-18T19:25:26.244Z,4.77
2017-11-18T19:27:53.790Z,4.40
2017-11-18T19:30:21.260Z,4.87
2017-11-18T19:32:48.771Z,5.60
2017-11-18T19:35:16.280Z,5.30
2017-11-18T19:37:43.790Z,4.80
2017-11-18T19:40:11.296Z,6.07
2017-11-18T19:42:38.904Z,5.37
2017-11-18T19:45:06.617Z,5.57
2017-11-18T19:47:34.939Z,5.60
2017-11-18T19:50:03.415Z,5.50
2017-11-18T19:52:31.004Z,5.20
2017-11-18T19:54:58.486Z,6.00
2017-11-18T19:57:25.943Z,6.97
2017-11-18T19:59:53.505Z,7.10
2017-11-18T20:02:20.918Z,8.13
2017-11-18T20:04:49.147Z,6.77
2017-11-18T20:07:16.636Z,7.87
2017-11-18T20:09:44.125Z,7.80
2017-11-18T20:12:12.591Z,7.93
2017-11-18T20:14:40.808Z,7.57
2017-11-18T20:17:08.302Z,8.57
2017-11-18T20:19:36.622Z,9.37
2017-11-18T20:22:04.949Z,9.20
2017-11-18T20:24:32.397Z,8.50
2017-11-18T20:27:00.644Z,8.27
2017-11-18T20:29:28.146Z,9.20
2017-11-18T20:31:55.596Z,8.40
2017-11-18T20:34:23.257Z,9.20
2017-11-18T20:36:50.732Z,8.40
2017-11-18T20:39:18.347Z,8.77
2017-11-18T20:41:45.844Z,8.20
2017-11-18T20:44:15.345Z,8.70
2017-11-18T20:46:43.586Z,8.30
2017-11-18T20:49:11.029Z,7.77
2017-11-18T20:51:38.549Z,7.90
2017-11-18T20:54:05.975Z,8.57
2017-11-18T20:56:33.493Z,7.40
2017-11-18T20:59:00.997Z,7.93
2017-11-18T21:01:29.453Z,6.97
2017-11-18T21:03:56.947Z,8.00
2017-11-18T21:06:24.523Z,6.40
2017-11-18T21:08:52.059Z,7.30
2017-11-18T21:11:19.499Z,6.60
2017-11-18T21:13:47.012Z,6.67
2017-11-18T21:16:14.499Z,7.60
2017-11-18T21:18:41.947Z,5.37
2017-11-18T21:21:09.433Z,7.40
2017-11-18T21:23:36.935Z,6.40
2017-11-18T21:26:05.179Z,6.07
2017-11-18T21:28:32.676Z,5.90
2017-11-18T21:31:00.142Z,5.67
2017-11-18T21:33:28.396Z,6.10
2017-11-18T21:35:55.892Z,5.27
2017-11-18T21:38:23.412Z,5.83
2017-11-18T21:40:50.866Z,6.20
2017-11-18T21:43:18.376Z,5.87
2017-11-18T21:45:45.832Z,5.67
2017-11-18T21:48:13.292Z,5.10
2017-11-18T21:50:40.775Z,5.80
2017-11-18T21:53:09.020Z,5.10
2017-11-18T21:55:36.620Z,5.47
2017-11-18T21:58:04.865Z,5.17
2017-11-18T22:00:32.309Z,6.23
2017-11-18T22:02:59.801Z,5.77
2017-11-18T22:05:27.286Z,6.57
2017-11-18T22:07:55.613Z,5.53
2017-11-18T22:10:23.117Z,6.10
2017-11-18T22:12:50.608Z,6.93
2017-11-18T22:15:18.065Z,7.10
2017-11-18T22:17:45.576Z,6.87
2017-11-18T22:20:12.981Z,6.50
2017-11-18T22:22:41.190Z,6.73
2017-11-18T22:25:08.704Z,6.50
2017-11-18T22:27:36.374Z,6.60
2017-11-18T22:30:03.805Z,7.70
2017-11-18T22:32:31.290Z,7.90
2017-11-18T22:34:58.747Z,7.57
2017-11-18T22:37:26.205Z,7.87
2017-11-18T22:39:53.697Z,8.20
2017-11-18T22:42:21.927Z,7.63
2017-11-18T22:44:49.409Z,7.80
2017-11-18T22:47:16.874Z,7.00
2017-11-18T22:49:44.568Z,8.13
2017-11-18T22:52:12.022Z,8.13
2017-11-18T22:54:39.492Z,9.20
2017-11-18T22:57:07.742Z,7.87
2017-11-18T22:59:35.210Z,7.90
2017-11-18T23:02:02.730Z,9.30
2017-11-18T23:04:30.241Z,9.23
2017-11-18T23:06:57.690Z,9.20
2017-11-18T23:09:25.140Z,8.50
2017-11-18T23:11:52.665Z,9.27
2017-11-18T23:14:20.119Z,8.30
2017-11-18T23:16:47.614Z,9.23
2017-11-18T23:19:15.888Z,9.77
2017-11-18T23:21:44.127Z,8.10
2017-11-18T23:24:11.581Z,7.80
2017-11-18T23:26:39.074Z,8.70
2017-11-18T23:29:06.531Z,9.50
2017-11-18T23:31:33.985Z,8.17
2017-11-18T23:34:01.537Z,7.93
2017-11-18T23:36:28.992Z,8.40
2017-11-18T23:38:56.499Z,8.03
2017-11-18T23:41:24.709Z,7.23
2017-11-18T23:43:52.174Z,7.20
2017-11-18T23:46:19.670Z,7.57
2017-11-18T23:48:47.133Z,7.03
2017-11-18T23:51:14.609Z,6.87
2017-11-18T23:53:42.080Z,7.53
2017-11-18T23:56:09.564Z,6.47
2017-11-18T23:58:37.829Z,8.40
